createdAt,value
2018-09-23T00:00:13.906Z,1011.58
2018-09-23T00:01:13.892Z,1011.62
2018-09-23T00:02:13.913Z,1011.55
2018-09-23T00:03:13.934Z,1011.56
2018-09-23T00:04:14.054Z,1011.57
2018-09-23T00:05:13.975Z,1011.57
2018-09-23T00:06:13.995Z,1011.6
2018-09-23T00:07:14.016Z,1011.64
2018-09-23T00:08:14.036Z,1011.6
2018-09-23T00:09:14.057Z,1011.59
2018-09-23T00:10:14.078Z,1011.57
2018-09-23T00:11:14.098Z,1011.55
2018-09-23T00:12:14.127Z,1011.56
2018-09-23T00:13:14.140Z,1011.57
2018-09-23T00:14:14.160Z,1011.61
2018-09-23T00:15:14.180Z,1011.61
2018-09-23T00:17:14.221Z,1011.57
2018-09-23T00:18:14.241Z,1011.59
2018-09-23T00:19:14.263Z,1011.59
2018-09-23T00:20:14.283Z,1011.64
2018-09-23T00:21:14.304Z,1011.6
2018-09-23T00:22:14.336Z,1011.68
2018-09-23T00:23:14.343Z,1011.63
2018-09-23T00:24:14.365Z,1011.59
2018-09-23T00:25:14.389Z,1011.57
2018-09-23T00:26:14.406Z,1011.61
2018-09-23T00:27:14.426Z,1011.57
2018-09-23T00:28:14.447Z,1011.59
2018-09-23T00:29:14.467Z,1011.58
2018-09-23T00:30:14.488Z,1011.58
2018-09-23T00:31:14.509Z,1011.54
2018-09-23T00:33:14.550Z,1011.56
2018-09-23T00:34:14.569Z,1011.54
2018-09-23T00:35:14.590Z,1011.52
2018-09-23T00:36:14.611Z,1011.49
2018-09-23T00:37:14.631Z,1011.52
2018-09-23T00:38:14.651Z,1011.5
2018-09-23T00:39:14.672Z,1011.49
2018-09-23T00:40:14.693Z,1011.49
2018-09-23T00:41:14.713Z,1011.49
2018-09-23T00:42:14.732Z,1011.42
2018-09-23T00:43:14.754Z,1011.48
2018-09-23T00:44:14.775Z,1011.44
2018-09-23T00:45:14.798Z,1011.42
2018-09-23T00:46:14.815Z,1011.37
2018-09-23T00:47:14.838Z,1011.43
2018-09-23T00:49:14.875Z,1011.47
2018-09-23T00:50:14.896Z,1011.43
2018-09-23T00:51:14.921Z,1011.47
2018-09-23T00:52:14.936Z,1011.49
2018-09-23T00:53:14.957Z,1011.51
2018-09-23T00:54:14.978Z,1011.47
2018-09-23T00:55:14.999Z,1011.46
2018-09-23T00:56:15.018Z,1011.47
2018-09-23T00:57:15.038Z,1011.49
2018-09-23T00:58:15.059Z,1011.49
2018-09-23T00:59:15.079Z,1011.45
2018-09-23T01:00:15.100Z,1011.47
2018-09-23T01:01:15.120Z,1011.45
2018-09-23T01:02:15.139Z,1011.48
2018-09-23T01:03:15.161Z,1011.46
2018-09-23T01:05:15.201Z,1011.41
2018-09-23T01:06:15.220Z,1011.39
2018-09-23T01:07:15.242Z,1011.31
2018-09-23T01:08:15.262Z,1011.35
2018-09-23T01:09:15.283Z,1011.37
2018-09-23T01:10:15.302Z,1011.42
2018-09-23T01:11:15.325Z,1011.38
2018-09-23T01:12:15.343Z,1011.33
2018-09-23T01:13:15.364Z,1011.36
2018-09-23T01:14:15.383Z,1011.35
2018-09-23T01:15:15.408Z,1011.38
2018-09-23T01:16:15.427Z,1011.32
2018-09-23T01:17:15.446Z,1011.34
2018-09-23T01:18:15.467Z,1011.32
2018-09-23T01:20:15.508Z,1011.28
2018-09-23T01:21:15.527Z,1011.27
2018-09-23T01:22:15.548Z,1011.28
2018-09-23T01:23:15.571Z,1011.25
2018-09-23T01:24:15.592Z,1011.27
2018-09-23T01:25:15.608Z,1011.22
2018-09-23T01:26:15.630Z,1011.21
2018-09-23T01:27:15.651Z,1011.22
2018-09-23T01:28:15.670Z,1011.27
2018-09-23T01:29:15.691Z,1011.24
2018-09-23T01:30:15.712Z,1011.26
2018-09-23T01:31:15.732Z,1011.24
2018-09-23T01:32:15.755Z,1011.23
2018-09-23T01:33:15.772Z,1011.26
2018-09-23T01:34:15.792Z,1011.27
2018-09-23T01:35:15.814Z,1011.29
2018-09-23T01:36:15.832Z,1011.29
2018-09-23T01:37:15.858Z,1011.3
2018-09-23T01:38:15.872Z,1011.26
2018-09-23T01:39:15.893Z,1011.25
2018-09-23T01:40:15.914Z,1011.23
2018-09-23T01:41:15.934Z,1011.19
2018-09-23T01:42:15.955Z,1011.15
2018-09-23T01:43:15.975Z,1011.12
2018-09-23T01:44:15.995Z,1011.1
2018-09-23T01:45:16.016Z,1011.13
2018-09-23T01:46:16.036Z,1011.11
2018-09-23T01:47:16.061Z,1011.09
2018-09-23T01:48:16.077Z,1011.08
2018-09-23T01:49:16.096Z,1011.08
2018-09-23T01:50:16.115Z,1011.02
2018-09-23T01:52:16.157Z,1010.97
2018-09-23T01:53:16.179Z,1011.01
2018-09-23T01:54:16.196Z,1011.02
2018-09-23T01:55:16.217Z,1011.01
2018-09-23T01:56:16.243Z,1011.04
2018-09-23T01:57:16.258Z,1011.06
2018-09-23T01:58:16.277Z,1011.02
2018-09-23T01:59:16.298Z,1010.99
2018-09-23T02:00:16.318Z,1010.97
2018-09-23T02:01:16.338Z,1010.99
2018-09-23T02:02:16.357Z,1011.03
2018-09-23T02:03:16.379Z,1011.02
2018-09-23T02:04:16.399Z,1011.07
2018-09-23T02:05:16.420Z,1011.08
2018-09-23T02:06:16.439Z,1011.09
2018-09-23T02:08:16.479Z,1011.1
2018-09-23T02:09:16.499Z,1011.09
2018-09-23T02:10:16.519Z,1011.06
2018-09-23T02:11:16.540Z,1011.05
2018-09-23T02:12:16.558Z,1010.99
2018-09-23T02:13:16.579Z,1010.98
2018-09-23T02:14:16.599Z,1010.98
2018-09-23T02:15:16.621Z,1010.97
2018-09-23T02:16:16.640Z,1010.93
2018-09-23T02:17:16.660Z,1010.98
2018-09-23T02:18:16.680Z,1010.99
2018-09-23T02:19:16.701Z,1010.97
2018-09-23T02:20:16.718Z,1010.95
2018-09-23T02:21:16.805Z,1011
2018-09-23T02:22:16.759Z,1010.96
2018-09-23T02:24:16.799Z,1010.95
2018-09-23T02:25:16.822Z,1010.94
2018-09-23T02:26:16.838Z,1010.91
2018-09-23T02:27:16.864Z,1010.93
2018-09-23T02:28:16.879Z,1010.92
2018-09-23T02:29:16.901Z,1010.95
2018-09-23T02:30:16.924Z,1010.91
2018-09-23T02:31:16.938Z,1010.96
2018-09-23T02:32:16.959Z,1010.94
2018-09-23T02:33:16.980Z,1010.95
2018-09-23T02:34:16.998Z,1010.88
2018-09-23T02:35:17.019Z,1010.89
2018-09-23T02:36:17.039Z,1010.89
2018-09-23T02:37:17.058Z,1010.87
2018-09-23T02:38:17.077Z,1010.83
2018-09-23T02:40:17.120Z,1010.83
2018-09-23T02:41:17.137Z,1010.82
2018-09-23T02:42:17.156Z,1010.87
2018-09-23T02:43:17.180Z,1010.85
2018-09-23T02:44:17.197Z,1010.87
2018-09-23T02:45:17.217Z,1010.88
2018-09-23T02:46:17.237Z,1010.87
2018-09-23T02:47:17.257Z,1010.81
2018-09-23T02:48:17.278Z,1010.81
2018-09-23T02:49:17.296Z,1010.8
2018-09-23T02:50:17.317Z,1010.78
2018-09-23T02:51:17.336Z,1010.76
2018-09-23T02:52:17.356Z,1010.75
2018-09-23T02:53:17.384Z,1010.72
2018-09-23T02:55:17.416Z,1010.71
2018-09-23T02:56:17.435Z,1010.73
2018-09-23T02:57:17.456Z,1010.74
2018-09-23T02:58:17.476Z,1010.78
2018-09-23T02:59:17.496Z,1010.79
2018-09-23T03:00:17.516Z,1010.78
2018-09-23T03:01:17.534Z,1010.77
2018-09-23T03:02:17.556Z,1010.76
2018-09-23T03:03:17.574Z,1010.74
2018-09-23T03:04:17.595Z,1010.71
2018-09-23T03:05:17.615Z,1010.69
2018-09-23T03:06:17.635Z,1010.61
2018-09-23T03:07:17.655Z,1010.63
2018-09-23T03:08:17.674Z,1010.64
2018-09-23T03:09:17.695Z,1010.71
2018-09-23T03:10:17.715Z,1010.71
2018-09-23T03:11:17.733Z,1010.62
2018-09-23T03:12:17.753Z,1010.63
2018-09-23T03:13:17.773Z,1010.61
2018-09-23T03:14:17.794Z,1010.63
2018-09-23T03:15:17.813Z,1010.66
2018-09-23T03:16:17.833Z,1010.63
2018-09-23T03:17:17.853Z,1010.61
2018-09-23T03:18:17.873Z,1010.66
2018-09-23T03:19:17.892Z,1010.63
2018-09-23T03:20:17.912Z,1010.62
2018-09-23T03:21:17.934Z,1010.59
2018-09-23T03:22:17.951Z,1010.58
2018-09-23T03:23:17.971Z,1010.56
2018-09-23T03:24:17.991Z,1010.59
2018-09-23T03:25:18.010Z,1010.57
2018-09-23T03:27:18.049Z,1010.54
2018-09-23T03:28:18.070Z,1010.52
2018-09-23T03:29:18.094Z,1010.52
2018-09-23T03:30:18.110Z,1010.62
2018-09-23T03:31:18.143Z,1010.62
2018-09-23T03:32:18.149Z,1010.63
2018-09-23T03:33:18.167Z,1010.64
2018-09-23T03:34:18.188Z,1010.58
2018-09-23T03:35:18.208Z,1010.59
2018-09-23T03:36:18.232Z,1010.61
2018-09-23T03:37:18.246Z,1010.63
2018-09-23T03:38:18.265Z,1010.66
2018-09-23T03:39:18.286Z,1010.68
2018-09-23T03:40:18.306Z,1010.67
2018-09-23T03:41:18.326Z,1010.62
2018-09-23T03:43:18.365Z,1010.56
2018-09-23T03:44:18.384Z,1010.52
2018-09-23T03:45:18.403Z,1010.51
2018-09-23T03:46:18.425Z,1010.49
2018-09-23T03:47:18.443Z,1010.56
2018-09-23T03:48:18.461Z,1010.53
2018-09-23T03:49:18.484Z,1010.54
2018-09-23T03:50:18.503Z,1010.47
2018-09-23T03:51:18.525Z,1010.43
2018-09-23T03:52:18.542Z,1010.41
2018-09-23T03:53:18.562Z,1010.4
2018-09-23T03:54:18.582Z,1010.38
2018-09-23T03:55:18.599Z,1010.4
2018-09-23T03:56:18.620Z,1010.37
2018-09-23T03:57:18.639Z,1010.39
2018-09-23T03:59:18.679Z,1010.49
2018-09-23T04:00:18.698Z,1010.44
2018-09-23T04:01:18.717Z,1010.47
2018-09-23T04:02:18.741Z,1010.46
2018-09-23T04:03:18.758Z,1010.4
2018-09-23T04:04:18.777Z,1010.38
2018-09-23T04:05:18.796Z,1010.36
2018-09-23T04:06:18.817Z,1010.33
2018-09-23T04:07:18.835Z,1010.34
2018-09-23T04:08:18.858Z,1010.33
2018-09-23T04:09:18.874Z,1010.34
2018-09-23T04:10:18.893Z,1010.43
2018-09-23T04:11:18.914Z,1010.41
2018-09-23T04:12:18.945Z,1010.39
2018-09-23T04:13:18.952Z,1010.37
2018-09-23T04:15:18.992Z,1010.42
2018-09-23T04:16:19.010Z,1010.42
2018-09-23T04:17:19.031Z,1010.44
2018-09-23T04:18:19.151Z,1010.43
2018-09-23T04:19:19.070Z,1010.43
2018-09-23T04:20:19.088Z,1010.4
2018-09-23T04:21:19.107Z,1010.4
2018-09-23T04:22:19.128Z,1010.39
2018-09-23T04:23:19.147Z,1010.38
2018-09-23T04:24:19.165Z,1010.38
2018-09-23T04:25:19.185Z,1010.37
2018-09-23T04:26:19.205Z,1010.39
2018-09-23T04:27:19.225Z,1010.41
2018-09-23T04:28:19.244Z,1010.39
2018-09-23T04:30:19.285Z,1010.38
2018-09-23T04:31:19.312Z,1010.35
2018-09-23T04:32:19.323Z,1010.33
2018-09-23T04:33:19.344Z,1010.36
2018-09-23T04:34:19.363Z,1010.39
2018-09-23T04:35:19.381Z,1010.36
2018-09-23T04:36:19.401Z,1010.36
2018-09-23T04:37:19.422Z,1010.36
2018-09-23T04:38:19.439Z,1010.38
2018-09-23T04:39:19.461Z,1010.35
2018-09-23T04:40:19.483Z,1010.4
2018-09-23T04:41:19.500Z,1010.38
2018-09-23T04:42:19.518Z,1010.36
2018-09-23T04:43:19.538Z,1010.32
2018-09-23T04:44:19.557Z,1010.34
2018-09-23T04:45:19.579Z,1010.23
2018-09-23T04:46:19.596Z,1010.24
2018-09-23T04:47:19.623Z,1010.29
2018-09-23T04:48:19.635Z,1010.27
2018-09-23T04:49:19.655Z,1010.24
2018-09-23T04:50:19.675Z,1010.22
2018-09-23T04:51:19.696Z,1010.24
2018-09-23T04:52:19.714Z,1010.25
2018-09-23T04:53:19.734Z,1010.29
2018-09-23T04:54:19.752Z,1010.3
2018-09-23T04:55:19.777Z,1010.32
2018-09-23T04:56:19.793Z,1010.36
2018-09-23T04:57:19.813Z,1010.36
2018-09-23T04:58:19.831Z,1010.37
2018-09-23T04:59:19.850Z,1010.32
2018-09-23T05:00:19.871Z,1010.32
2018-09-23T05:02:19.911Z,1010.28
2018-09-23T05:03:19.931Z,1010.29
2018-09-23T05:04:19.949Z,1010.25
2018-09-23T05:05:19.970Z,1010.24
2018-09-23T05:06:19.990Z,1010.25
2018-09-23T05:07:20.010Z,1010.22
2018-09-23T05:08:20.031Z,1010.25
2018-09-23T05:09:20.049Z,1010.22
2018-09-23T05:10:20.069Z,1010.2
2018-09-23T05:11:20.088Z,1010.21
2018-09-23T05:12:20.107Z,1010.15
2018-09-23T05:13:20.130Z,1010.17
2018-09-23T05:14:20.148Z,1010.18
2018-09-23T05:15:20.166Z,1010.19
2018-09-23T05:16:20.189Z,1010.21
2018-09-23T05:18:20.227Z,1010.17
2018-09-23T05:19:20.245Z,1010.14
2018-09-23T05:20:20.265Z,1010.15
2018-09-23T05:21:20.286Z,1010.14
2018-09-23T05:22:20.305Z,1010.11
2018-09-23T05:23:20.326Z,1010.1
2018-09-23T05:24:20.344Z,1010.12
2018-09-23T05:25:20.367Z,1010.08
2018-09-23T05:26:20.384Z,1010.11
2018-09-23T05:27:20.405Z,1010.11
2018-09-23T05:28:20.425Z,1010.07
2018-09-23T05:29:20.446Z,1010.05
2018-09-23T05:30:20.463Z,1010.03
2018-09-23T05:31:20.484Z,1010
2018-09-23T05:32:20.504Z,1009.97
2018-09-23T05:34:20.543Z,1009.93
2018-09-23T05:35:20.602Z,1009.91
2018-09-23T05:36:20.587Z,1009.95
2018-09-23T05:37:20.601Z,1009.91
2018-09-23T05:38:20.627Z,1009.95
2018-09-23T05:39:20.642Z,1009.98
2018-09-23T05:40:20.662Z,1009.98
2018-09-23T05:41:20.683Z,1010
2018-09-23T05:42:20.705Z,1010.06
2018-09-23T05:43:20.724Z,1010.04
2018-09-23T05:44:20.741Z,1010.06
2018-09-23T05:45:20.762Z,1010.04
2018-09-23T05:46:20.782Z,1010.07
2018-09-23T05:47:20.952Z,1010.01
2018-09-23T05:48:20.821Z,1009.99
2018-09-23T05:50:20.862Z,1009.97
2018-09-23T05:51:20.882Z,1009.97
2018-09-23T05:52:20.902Z,1009.95
2018-09-23T05:53:20.928Z,1009.92
2018-09-23T05:54:20.942Z,1009.88
2018-09-23T05:55:20.962Z,1009.87
2018-09-23T05:56:20.982Z,1009.89
2018-09-23T05:57:21.002Z,1009.83
2018-09-23T05:58:21.021Z,1009.82
2018-09-23T05:59:21.042Z,1009.85
2018-09-23T06:00:21.062Z,1009.87
2018-09-23T06:01:21.081Z,1009.85
2018-09-23T06:02:21.103Z,1009.88
2018-09-23T06:03:21.124Z,1009.85
2018-09-23T06:05:21.164Z,1009.84
2018-09-23T06:06:21.184Z,1009.83
2018-09-23T06:07:21.204Z,1009.74
2018-09-23T06:08:21.225Z,1009.7
2018-09-23T06:09:21.246Z,1009.7
2018-09-23T06:10:21.268Z,1009.72
2018-09-23T06:11:21.286Z,1009.72
2018-09-23T06:12:21.306Z,1009.79
2018-09-23T06:13:21.325Z,1009.78
2018-09-23T06:14:21.346Z,1009.78
2018-09-23T06:15:21.367Z,1009.81
2018-09-23T06:16:21.390Z,1009.79
2018-09-23T06:17:21.409Z,1009.83
2018-09-23T06:18:21.437Z,1009.83
2018-09-23T06:19:21.449Z,1009.83
2018-09-23T06:20:21.469Z,1009.86
2018-09-23T06:21:21.538Z,1009.87
2018-09-23T06:22:21.509Z,1009.88
2018-09-23T06:23:21.529Z,1009.88
2018-09-23T06:24:21.550Z,1009.87
2018-09-23T06:25:21.591Z,1009.86
2018-09-23T06:26:21.592Z,1009.84
2018-09-23T06:27:21.612Z,1009.88
2018-09-23T06:28:21.632Z,1009.95
2018-09-23T06:29:21.653Z,1009.96
2018-09-23T06:30:21.673Z,1009.95
2018-09-23T06:31:21.692Z,1009.93
2018-09-23T06:32:21.718Z,1009.93
2018-09-23T06:33:21.735Z,1009.9
2018-09-23T06:34:21.755Z,1009.78
2018-09-23T06:35:21.775Z,1009.77
2018-09-23T06:37:21.815Z,1009.77
2018-09-23T06:38:21.843Z,1009.77
2018-09-23T06:39:21.858Z,1009.75
2018-09-23T06:40:21.878Z,1009.8
2018-09-23T06:41:21.900Z,1009.81
2018-09-23T06:42:21.921Z,1009.87
2018-09-23T06:43:21.941Z,1009.91
2018-09-23T06:44:21.961Z,1009.96
2018-09-23T06:45:21.983Z,1009.97
2018-09-23T06:46:22.004Z,1010.02
2018-09-23T06:47:22.024Z,1010.07
2018-09-23T06:48:22.046Z,1010.14
2018-09-23T06:49:22.066Z,1010.19
2018-09-23T06:50:22.087Z,1010.17
2018-09-23T06:51:22.107Z,1010.15
2018-09-23T06:53:22.150Z,1010.06
2018-09-23T06:54:22.170Z,1009.99
2018-09-23T06:55:22.193Z,1009.98
2018-09-23T06:56:22.214Z,1009.99
2018-09-23T06:57:22.312Z,1009.99
2018-09-23T06:58:22.257Z,1009.95
2018-09-23T06:59:22.277Z,1009.94
2018-09-23T07:00:22.298Z,1009.93
2018-09-23T07:01:22.319Z,1009.92
2018-09-23T07:02:22.339Z,1009.91
2018-09-23T07:03:22.361Z,1009.98
2018-09-23T07:04:22.399Z,1009.96
2018-09-23T07:05:22.403Z,1010.08
2018-09-23T07:06:22.425Z,1010.07
2018-09-23T07:07:22.446Z,1010.08
2018-09-23T07:09:22.489Z,1010.04
2018-09-23T07:10:22.572Z,1010.04
2018-09-23T07:11:22.533Z,1010.04
2018-09-23T07:12:22.553Z,1010.07
2018-09-23T07:13:22.575Z,1010.07
2018-09-23T07:14:22.595Z,1010
2018-09-23T07:15:22.617Z,1010.03
2018-09-23T07:16:22.639Z,1010.03
2018-09-23T07:17:22.661Z,1010.08
2018-09-23T07:18:22.683Z,1010.08
2018-09-23T07:19:22.704Z,1010.05
2018-09-23T07:20:22.775Z,1010.06
2018-09-23T07:21:22.747Z,1010
2018-09-23T07:22:22.769Z,1010
2018-09-23T07:23:22.791Z,1009.96
2018-09-23T07:25:22.835Z,1009.97
2018-09-23T07:26:22.861Z,1009.96
2018-09-23T07:27:22.879Z,1009.92
2018-09-23T07:28:22.899Z,1009.95
2018-09-23T07:29:22.923Z,1010.01
2018-09-23T07:30:22.945Z,1010.02
2018-09-23T07:31:22.968Z,1010.04
2018-09-23T07:32:22.988Z,1010.09
2018-09-23T07:33:23.012Z,1010.08
2018-09-23T07:34:23.035Z,1010.12
2018-09-23T07:35:23.057Z,1010.13
2018-09-23T07:36:23.080Z,1010.06
2018-09-23T07:37:23.102Z,1010.03
2018-09-23T07:38:23.125Z,1010.08
2018-09-23T07:40:23.169Z,1010.13
2018-09-23T07:41:23.192Z,1010.13
2018-09-23T07:42:23.214Z,1010.13
2018-09-23T07:43:23.238Z,1010.13
2018-09-23T07:44:23.261Z,1010.13
2018-09-23T07:45:23.284Z,1010.15
2018-09-23T07:46:23.305Z,1010.13
2018-09-23T07:47:23.331Z,1010.15
2018-09-23T07:48:23.351Z,1010.15
2018-09-23T07:49:23.374Z,1010.18
2018-09-23T07:50:23.398Z,1010.15
2018-09-23T07:51:23.421Z,1010.21
2018-09-23T07:52:23.443Z,1010.19
2018-09-23T07:53:23.471Z,1010.22
2018-09-23T07:54:23.490Z,1010.22
2018-09-23T07:55:23.514Z,1010.21
2018-09-23T07:56:23.563Z,1010.16
2018-09-23T07:57:23.560Z,1010.16
2018-09-23T07:58:23.583Z,1010.21
2018-09-23T07:59:23.605Z,1010.15
2018-09-23T08:00:23.629Z,1010.14
2018-09-23T08:01:23.654Z,1010.14
2018-09-23T08:02:23.680Z,1010.07
2018-09-23T08:03:23.754Z,1010.07
2018-09-23T08:04:23.721Z,1010.04
2018-09-23T08:05:23.744Z,1010.02
2018-09-23T08:06:23.768Z,1010.05
2018-09-23T08:07:23.792Z,1010.08
2018-09-23T08:08:23.816Z,1010.09
2018-09-23T08:09:23.839Z,1010.09
2018-09-23T08:10:23.861Z,1010.01
2018-09-23T08:12:23.982Z,1009.93
2018-09-23T08:13:24.092Z,1009.92
2018-09-23T08:14:24.367Z,1009.93
2018-09-23T08:15:23.980Z,1009.91
2018-09-23T08:16:24.003Z,1009.9
2018-09-23T08:17:24.028Z,1009.87
2018-09-23T08:18:24.049Z,1009.92
2018-09-23T08:19:24.147Z,1009.83
2018-09-23T08:20:24.216Z,1009.77
2018-09-23T08:21:24.125Z,1009.74
2018-09-23T08:22:24.150Z,1009.68
2018-09-23T08:23:24.168Z,1009.74
2018-09-23T08:24:24.199Z,1009.73
2018-09-23T08:25:24.247Z,1009.7
2018-09-23T08:26:24.259Z,1009.66
2018-09-23T08:28:24.286Z,1009.67
2018-09-23T08:29:24.309Z,1009.69
2018-09-23T08:30:24.333Z,1009.72
2018-09-23T08:31:24.356Z,1009.74
2018-09-23T08:32:24.380Z,1009.7
2018-09-23T08:33:24.404Z,1009.69
2018-09-23T08:34:24.427Z,1009.66
2018-09-23T08:35:24.451Z,1009.65
2018-09-23T08:36:24.477Z,1009.57
2018-09-23T08:37:24.515Z,1009.54
2018-09-23T08:38:24.522Z,1009.56
2018-09-23T08:39:24.545Z,1009.51
2018-09-23T08:40:24.568Z,1009.52
2018-09-23T08:41:24.598Z,1009.49
2018-09-23T08:42:24.618Z,1009.5
2018-09-23T08:44:24.662Z,1009.47
2018-09-23T08:45:24.685Z,1009.51
2018-09-23T08:46:24.909Z,1009.49
2018-09-23T08:47:24.731Z,1009.5
2018-09-23T08:48:24.907Z,1009.55
2018-09-23T08:49:24.781Z,1009.53
2018-09-23T08:50:24.801Z,1009.55
2018-09-23T08:51:24.824Z,1009.51
2018-09-23T08:52:24.898Z,1009.49
2018-09-23T08:53:24.871Z,1009.45
2018-09-23T08:54:24.893Z,1009.44
2018-09-23T08:55:24.917Z,1009.42
2018-09-23T08:56:24.940Z,1009.39
2018-09-23T08:57:24.964Z,1009.35
2018-09-23T08:58:24.986Z,1009.38
2018-09-23T09:00:25.039Z,1009.43
2018-09-23T09:01:25.058Z,1009.42
2018-09-23T09:02:25.078Z,1009.38
2018-09-23T09:03:25.102Z,1009.38
2018-09-23T09:04:25.125Z,1009.43
2018-09-23T09:05:25.146Z,1009.47
2018-09-23T09:06:25.171Z,1009.5
2018-09-23T09:07:25.194Z,1009.47
2018-09-23T09:08:25.216Z,1009.51
2018-09-23T09:09:25.252Z,1009.48
2018-09-23T09:10:25.262Z,1009.45
2018-09-23T09:11:25.351Z,1009.42
2018-09-23T09:12:25.314Z,1009.4
2018-09-23T09:13:25.334Z,1009.37
2018-09-23T09:15:25.380Z,1009.33
2018-09-23T09:16:25.403Z,1009.28
2018-09-23T09:17:25.431Z,1009.28
2018-09-23T09:18:25.528Z,1009.21
2018-09-23T09:19:25.473Z,1009.18
2018-09-23T09:20:25.496Z,1009.12
2018-09-23T09:21:25.518Z,1009.1
2018-09-23T09:22:25.542Z,1009.05
2018-09-23T09:23:25.565Z,1009.05
2018-09-23T09:24:25.589Z,1009.01
2018-09-23T09:25:25.611Z,1009.04
2018-09-23T09:26:25.634Z,1009.08
2018-09-23T09:27:25.657Z,1009.07
2018-09-23T09:28:25.680Z,1009.04
2018-09-23T09:29:25.711Z,1009.09
2018-09-23T09:30:25.726Z,1009.07
2018-09-23T09:31:25.750Z,1009.12
2018-09-23T09:32:25.773Z,1009.07
2018-09-23T09:33:25.797Z,1009.04
2018-09-23T09:34:25.819Z,1009.06
2018-09-23T09:35:25.879Z,1009.02
2018-09-23T09:36:25.866Z,1009
2018-09-23T09:37:25.889Z,1008.97
2018-09-23T09:38:25.950Z,1008.95
2018-09-23T09:39:25.935Z,1008.91
2018-09-23T09:40:25.959Z,1008.93
2018-09-23T09:41:25.982Z,1009
2018-09-23T09:42:26.005Z,1008.96
2018-09-23T09:43:26.028Z,1008.96
2018-09-23T09:44:26.052Z,1008.95
2018-09-23T09:45:26.081Z,1008.96
2018-09-23T09:47:26.121Z,1009
2018-09-23T09:48:26.145Z,1009.03
2018-09-23T09:49:26.168Z,1009.07
2018-09-23T09:50:26.191Z,1009
2018-09-23T09:51:26.214Z,1009.12
2018-09-23T09:52:26.240Z,1009.07
2018-09-23T09:53:26.266Z,1009.1
2018-09-23T09:54:26.292Z,1009.08
2018-09-23T09:55:26.392Z,1009.06
2018-09-23T09:56:26.331Z,1009.08
2018-09-23T09:57:26.355Z,1009.08
2018-09-23T09:58:26.385Z,1009.09
2018-09-23T09:59:26.403Z,1009.11
2018-09-23T10:00:26.425Z,1009.14
2018-09-23T10:01:26.449Z,1009.17
2018-09-23T10:03:26.496Z,1009.12
2018-09-23T10:04:26.519Z,1009.13
2018-09-23T10:05:26.542Z,1009.16
2018-09-23T10:06:26.566Z,1009.17
2018-09-23T10:07:26.598Z,1009.08
2018-09-23T10:08:26.612Z,1009.01
2018-09-23T10:09:26.637Z,1008.97
2018-09-23T10:10:26.661Z,1008.93
2018-09-23T10:11:26.745Z,1008.88
2018-09-23T10:12:26.707Z,1008.76
2018-09-23T10:13:26.731Z,1008.72
2018-09-23T10:14:26.754Z,1008.69
2018-09-23T10:15:26.779Z,1008.65
2018-09-23T10:16:26.802Z,1008.64
2018-09-23T10:17:26.826Z,1008.67
2018-09-23T10:19:26.873Z,1008.63
2018-09-23T10:20:26.897Z,1008.58
2018-09-23T10:21:26.921Z,1008.56
2018-09-23T10:22:26.992Z,1008.54
2018-09-23T10:23:27.066Z,1008.47
2018-09-23T10:24:26.992Z,1008.5
2018-09-23T10:25:27.016Z,1008.46
2018-09-23T10:26:27.038Z,1008.47
2018-09-23T10:27:27.064Z,1008.51
2018-09-23T10:28:27.088Z,1008.54
2018-09-23T10:29:27.111Z,1008.46
2018-09-23T10:30:27.135Z,1008.41
2018-09-23T10:31:27.230Z,1008.35
2018-09-23T10:32:27.184Z,1008.3
2018-09-23T10:33:27.208Z,1008.29
2018-09-23T10:35:27.255Z,1008.24
2018-09-23T10:36:27.280Z,1008.25
2018-09-23T10:37:27.304Z,1008.27
2018-09-23T10:38:27.327Z,1008.31
2018-09-23T10:39:27.351Z,1008.23
2018-09-23T10:40:27.376Z,1008.26
2018-09-23T10:41:27.420Z,1008.26
2018-09-23T10:42:27.425Z,1008.18
2018-09-23T10:43:27.449Z,1008.25
2018-09-23T10:44:27.471Z,1008.23
2018-09-23T10:45:27.497Z,1008.19
2018-09-23T10:46:27.521Z,1008.19
2018-09-23T10:47:27.545Z,1008.11
2018-09-23T10:48:27.570Z,1008.07
2018-09-23T10:50:27.618Z,1007.96
2018-09-23T10:51:27.642Z,1007.87
2018-09-23T10:52:27.666Z,1007.8
2018-09-23T10:53:27.689Z,1007.62
2018-09-23T10:54:27.715Z,1007.58
2018-09-23T10:55:27.792Z,1007.54
2018-09-23T10:56:27.761Z,1007.55
2018-09-23T10:57:27.785Z,1007.56
2018-09-23T10:58:27.807Z,1007.6
2018-09-23T10:59:27.898Z,1007.56
2018-09-23T11:00:27.857Z,1007.57
2018-09-23T11:01:27.882Z,1007.62
2018-09-23T11:02:27.905Z,1007.58
2018-09-23T11:03:27.929Z,1007.65
2018-09-23T11:04:27.954Z,1007.7
2018-09-23T11:05:27.978Z,1007.77
2018-09-23T11:06:28.001Z,1007.77
2018-09-23T11:07:28.102Z,1007.76
2018-09-23T11:08:28.049Z,1007.71
2018-09-23T11:09:28.073Z,1007.71
2018-09-23T11:10:28.097Z,1007.69
2018-09-23T11:11:28.121Z,1007.71
2018-09-23T11:12:28.144Z,1007.7
2018-09-23T11:13:28.168Z,1007.63
2018-09-23T11:14:28.192Z,1007.59
2018-09-23T11:15:28.219Z,1007.51
2018-09-23T11:16:28.239Z,1007.48
2018-09-23T11:17:28.263Z,1007.46
2018-09-23T11:18:28.286Z,1007.51
2018-09-23T11:19:28.310Z,1007.56
2018-09-23T11:20:28.333Z,1007.52
2018-09-23T11:22:28.381Z,1007.49
2018-09-23T11:23:28.440Z,1007.54
2018-09-23T11:24:28.427Z,1007.53
2018-09-23T11:25:28.451Z,1007.51
2018-09-23T11:26:28.475Z,1007.51
2018-09-23T11:27:28.500Z,1007.44
2018-09-23T11:28:28.521Z,1007.33
2018-09-23T11:29:28.545Z,1007.26
2018-09-23T11:30:28.568Z,1007.23
2018-09-23T11:31:28.590Z,1007.22
2018-09-23T11:32:28.615Z,1007.23
2018-09-23T11:33:28.638Z,1007.21
2018-09-23T11:34:28.662Z,1007.18
2018-09-23T11:35:28.686Z,1007.12
2018-09-23T11:36:28.708Z,1007.09
2018-09-23T11:38:28.755Z,1006.98
2018-09-23T11:39:28.777Z,1006.96
2018-09-23T11:40:28.805Z,1006.96
2018-09-23T11:41:28.824Z,1006.94
2018-09-23T11:42:28.847Z,1006.95
2018-09-23T11:43:28.870Z,1006.93
2018-09-23T11:44:28.893Z,1006.94
2018-09-23T11:45:28.920Z,1006.83
2018-09-23T11:46:28.939Z,1006.85
2018-09-23T11:47:28.967Z,1006.81
2018-09-23T11:48:28.986Z,1006.79
2018-09-23T11:49:29.009Z,1006.72
2018-09-23T11:50:29.032Z,1006.73
2018-09-23T11:51:29.055Z,1006.74
2018-09-23T11:52:29.077Z,1006.76
2018-09-23T11:54:29.124Z,1006.74
2018-09-23T11:55:29.147Z,1006.8
2018-09-23T11:56:29.169Z,1006.76
2018-09-23T11:57:29.192Z,1006.72
2018-09-23T11:58:29.215Z,1006.75
2018-09-23T11:59:29.238Z,1006.71
2018-09-23T12:00:29.261Z,1006.68
2018-09-23T12:01:29.283Z,1006.61
2018-09-23T12:02:29.306Z,1006.57
2018-09-23T12:03:29.329Z,1006.54
2018-09-23T12:04:29.367Z,1006.51
2018-09-23T12:05:29.373Z,1006.44
2018-09-23T12:06:29.396Z,1006.37
2018-09-23T12:07:29.422Z,1006.37
2018-09-23T12:08:29.452Z,1006.33
2018-09-23T12:10:29.562Z,1006.28
2018-09-23T12:11:29.511Z,1006.26
2018-09-23T12:12:29.531Z,1006.25
2018-09-23T12:13:29.638Z,1006.25
2018-09-23T12:14:29.580Z,1006.24
2018-09-23T12:15:29.671Z,1006.21
2018-09-23T12:16:29.622Z,1006.18
2018-09-23T12:17:29.646Z,1006.19
2018-09-23T12:18:29.743Z,1006.18
2018-09-23T12:19:29.691Z,1006.22
2018-09-23T12:20:29.714Z,1006.16
2018-09-23T12:21:29.737Z,1006.08
2018-09-23T12:22:29.759Z,1006
2018-09-23T12:23:29.803Z,1005.92
2018-09-23T12:25:29.907Z,1005.79
2018-09-23T12:26:29.850Z,1005.73
2018-09-23T12:27:29.873Z,1005.68
2018-09-23T12:28:29.895Z,1005.67
2018-09-23T12:29:29.977Z,1005.69
2018-09-23T12:30:29.939Z,1005.74
2018-09-23T12:31:29.963Z,1005.74
2018-09-23T12:32:29.985Z,1005.72
2018-09-23T12:33:30.006Z,1005.71
2018-09-23T12:34:30.031Z,1005.71
2018-09-23T12:35:30.052Z,1005.68
2018-09-23T12:36:30.088Z,1005.61
2018-09-23T12:37:30.096Z,1005.55
2018-09-23T12:38:30.119Z,1005.59
2018-09-23T12:39:30.187Z,1005.62
2018-09-23T12:40:30.164Z,1005.66
2018-09-23T12:41:30.185Z,1005.73
2018-09-23T12:42:30.208Z,1005.8
2018-09-23T12:43:30.231Z,1005.83
2018-09-23T12:44:30.253Z,1005.85
2018-09-23T12:45:30.275Z,1005.88
2018-09-23T12:46:30.297Z,1005.93
2018-09-23T12:47:30.319Z,1005.88